sensor_id;sensor_type;location;lat;lon;timestamp;pressure;altitude;pressure_sealevel;temperature;humidity
34205;BME280;20471;49.680;20.074;2023-05-29T00:01:37;97369.31;;;9.80;65.79
34205;BME280;20471;49.680;20.074;2023-05-29T00:04:07;97370.73;;;9.77;65.97
34205;BME280;20471;49.680;20.074;2023-05-29T00:06:35;97367.74;;;9.73;66.09
34205;BME280;20471;49.680;20.074;2023-05-29T00:09:04;97369.60;;;9.70;66.02
34205;BME280;20471;49.680;20.074;2023-05-29T00:11:32;97365.98;;;9.62;66.02
34205;BME280;20471;49.680;20.074;2023-05-29T00:14:00;97362.95;;;9.55;66.17
34205;BME280;20471;49.680;20.074;2023-05-29T00:16:29;97363.10;;;9.52;66.22
34205;BME280;20471;49.680;20.074;2023-05-29T00:18:57;97361.34;;;9.49;66.37
34205;BME280;20471;49.680;20.074;2023-05-29T00:21:25;97363.70;;;9.47;66.33
34205;BME280;20471;49.680;20.074;2023-05-29T00:23:53;97358.09;;;9.44;66.35
34205;BME280;20471;49.680;20.074;2023-05-29T00:26:21;97357.89;;;9.40;66.40
34205;BME280;20471;49.680;20.074;2023-05-29T00:28:49;97355.61;;;9.38;66.51
34205;BME280;20471;49.680;20.074;2023-05-29T00:31:17;97357.51;;;9.36;66.60
34205;BME280;20471;49.680;20.074;2023-05-29T00:33:45;97357.29;;;9.34;66.55
34205;BME280;20471;49.680;20.074;2023-05-29T00:36:13;97360.06;;;9.32;66.64
34205;BME280;20471;49.680;20.074;2023-05-29T00:38:42;97362.27;;;9.29;66.72
34205;BME280;20471;49.680;20.074;2023-05-29T00:41:14;97359.85;;;9.25;66.70
34205;BME280;20471;49.680;20.074;2023-05-29T00:43:43;97357.02;;;9.22;66.69
34205;BME280;20471;49.680;20.074;2023-05-29T00:46:12;97352.66;;;9.17;66.79
34205;BME280;20471;49.680;20.074;2023-05-29T00:48:41;97352.27;;;9.11;66.94
34205;BME280;20471;49.680;20.074;2023-05-29T00:51:10;97354.99;;;9.05;67.04
34205;BME280;20471;49.680;20.074;2023-05-29T00:53:40;97352.27;;;9.00;67.17
34205;BME280;20471;49.680;20.074;2023-05-29T00:56:08;97353.20;;;8.96;67.28
34205;BME280;20471;49.680;20.074;2023-05-29T00:58:37;97354.20;;;8.91;67.32
34205;BME280;20471;49.680;20.074;2023-05-29T01:01:05;97351.08;;;8.82;67.57
34205;BME280;20471;49.680;20.074;2023-05-29T01:03:33;97350.45;;;8.79;67.68
34205;BME280;20471;49.680;20.074;2023-05-29T01:06:02;97350.42;;;8.76;67.87
34205;BME280;20471;49.680;20.074;2023-05-29T01:08:30;97351.90;;;8.75;67.85
34205;BME280;20471;49.680;20.074;2023-05-29T01:11:00;97349.70;;;8.74;67.86
34205;BME280;20471;49.680;20.074;2023-05-29T01:13:31;97350.98;;;8.72;67.85
34205;BME280;20471;49.680;20.074;2023-05-29T01:29:20;97356.20;;;8.49;68.08
34205;BME280;20471;49.680;20.074;2023-05-29T01:31:49;97353.59;;;8.47;68.05
34205;BME280;20471;49.680;20.074;2023-05-29T01:34:18;97351.77;;;8.44;67.97
34205;BME280;20471;49.680;20.074;2023-05-29T01:36:45;97349.15;;;8.41;67.96
34205;BME280;20471;49.680;20.074;2023-05-29T01:39:14;97344.98;;;8.38;68.10
34205;BME280;20471;49.680;20.074;2023-05-29T01:41:43;97344.30;;;8.36;68.24
34205;BME280;20471;49.680;20.074;2023-05-29T01:44:11;97346.08;;;8.33;68.35
34205;BME280;20471;49.680;20.074;2023-05-29T01:46:40;97351.03;;;8.29;68.44
34205;BME280;20471;49.680;20.074;2023-05-29T01:49:09;97356.20;;;8.27;68.56
34205;BME280;20471;49.680;20.074;2023-05-29T01:51:41;97351.70;;;8.29;68.55
34205;BME280;20471;49.680;20.074;2023-05-29T01:54:09;97349.91;;;8.29;68.52
34205;BME280;20471;49.680;20.074;2023-05-29T01:56:37;97347.55;;;8.28;68.53
34205;BME280;20471;49.680;20.074;2023-05-29T01:59:06;97345.08;;;8.25;68.46
34205;BME280;20471;49.680;20.074;2023-05-29T02:01:34;97342.37;;;8.19;68.50
34205;BME280;20471;49.680;20.074;2023-05-29T02:04:02;97340.33;;;8.16;68.44
34205;BME280;20471;49.680;20.074;2023-05-29T02:06:29;97339.31;;;8.14;68.48
34205;BME280;20471;49.680;20.074;2023-05-29T02:08:59;97340.94;;;8.11;68.50
34205;BME280;20471;49.680;20.074;2023-05-29T02:11:27;97344.45;;;8.08;68.45
34205;BME280;20471;49.680;20.074;2023-05-29T02:13:55;97342.47;;;8.02;68.44
34205;BME280;20471;49.680;20.074;2023-05-29T02:16:23;97343.70;;;7.97;68.63
34205;BME280;20471;49.680;20.074;2023-05-29T02:18:54;97339.17;;;7.92;68.67
34205;BME280;20471;49.680;20.074;2023-05-29T02:21:22;97339.44;;;7.89;68.72
34205;BME280;20471;49.680;20.074;2023-05-29T02:23:50;97338.72;;;7.88;68.85
34205;BME280;20471;49.680;20.074;2023-05-29T02:26:17;97334.20;;;7.87;68.74
34205;BME280;20471;49.680;20.074;2023-05-29T02:28:46;97330.11;;;7.84;68.71
34205;BME280;20471;49.680;20.074;2023-05-29T02:31:13;97329.79;;;7.81;68.72
34205;BME280;20471;49.680;20.074;2023-05-29T02:33:41;97329.45;;;7.80;68.74
34205;BME280;20471;49.680;20.074;2023-05-29T02:36:09;97327.96;;;7.75;68.78
34205;BME280;20471;49.680;20.074;2023-05-29T02:38:38;97326.46;;;7.71;68.81
34205;BME280;20471;49.680;20.074;2023-05-29T02:41:06;97328.67;;;7.65;68.92
34205;BME280;20471;49.680;20.074;2023-05-29T02:43:34;97331.95;;;7.63;69.07
34205;BME280;20471;49.680;20.074;2023-05-29T02:46:02;97334.34;;;7.63;69.06
34205;BME280;20471;49.680;20.074;2023-05-29T02:48:30;97335.49;;;7.62;69.12
34205;BME280;20471;49.680;20.074;2023-05-29T02:50:57;97336.38;;;7.61;69.13
34205;BME280;20471;49.680;20.074;2023-05-29T02:53:25;97337.77;;;7.59;69.15
34205;BME280;20471;49.680;20.074;2023-05-29T02:55:53;97336.06;;;7.57;69.21
34205;BME280;20471;49.680;20.074;2023-05-29T02:58:21;97331.91;;;7.56;69.33
34205;BME280;20471;49.680;20.074;2023-05-29T03:00:49;97325.17;;;7.55;69.34
34205;BME280;20471;49.680;20.074;2023-05-29T03:03:19;97327.33;;;7.55;69.50
34205;BME280;20471;49.680;20.074;2023-05-29T03:05:46;97330.62;;;7.55;69.49
34205;BME280;20471;49.680;20.074;2023-05-29T03:08:14;97325.23;;;7.52;69.49
34205;BME280;20471;49.680;20.074;2023-05-29T03:10:42;97327.43;;;7.50;69.59
34205;BME280;20471;49.680;20.074;2023-05-29T03:13:11;97335.27;;;7.49;69.62
34205;BME280;20471;49.680;20.074;2023-05-29T03:15:39;97338.09;;;7.44;69.67
34205;BME280;20471;49.680;20.074;2023-05-29T03:18:07;97341.98;;;7.40;69.90
34205;BME280;20471;49.680;20.074;2023-05-29T03:20:35;97337.23;;;7.41;70.04
34205;BME280;20471;49.680;20.074;2023-05-29T03:23:03;97336.31;;;7.44;70.04
34205;BME280;20471;49.680;20.074;2023-05-29T03:25:30;97333.04;;;7.46;70.00
34205;BME280;20471;49.680;20.074;2023-05-29T03:27:59;97334.45;;;7.47;69.99
34205;BME280;20471;49.680;20.074;2023-05-29T03:30:27;97331.77;;;7.50;70.11
34205;BME280;20471;49.680;20.074;2023-05-29T03:32:55;97333.46;;;7.53;70.15
34205;BME280;20471;49.680;20.074;2023-05-29T03:35:23;97334.31;;;7.57;70.09
34205;BME280;20471;49.680;20.074;2023-05-29T03:37:51;97337.73;;;7.60;70.14
34205;BME280;20471;49.680;20.074;2023-05-29T03:40:19;97332.13;;;7.63;70.15
34205;BME280;20471;49.680;20.074;2023-05-29T03:42:47;97332.58;;;7.67;70.19
34205;BME280;20471;49.680;20.074;2023-05-29T03:45:15;97332.55;;;7.70;70.21
34205;BME280;20471;49.680;20.074;2023-05-29T03:47:43;97335.15;;;7.72;70.12
34205;BME280;20471;49.680;20.074;2023-05-29T03:50:11;97334.78;;;7.75;70.26
34205;BME280;20471;49.680;20.074;2023-05-29T03:52:41;97332.70;;;7.78;70.30
34205;BME280;20471;49.680;20.074;2023-05-29T03:55:09;97336.54;;;7.82;70.31
34205;BME280;20471;49.680;20.074;2023-05-29T03:57:41;97336.23;;;7.85;70.33
34205;BME280;20471;49.680;20.074;2023-05-29T04:00:09;97339.23;;;7.90;70.31
34205;BME280;20471;49.680;20.074;2023-05-29T04:02:38;97338.73;;;7.94;70.30
34205;BME280;20471;49.680;20.074;2023-05-29T04:05:06;97338.00;;;7.98;70.34
34205;BME280;20471;49.680;20.074;2023-05-29T04:07:35;97337.80;;;8.03;70.44
34205;BME280;20471;49.680;20.074;2023-05-29T04:10:05;97334.14;;;8.06;70.38
34205;BME280;20471;49.680;20.074;2023-05-29T04:12:34;97337.29;;;8.09;70.44
34205;BME280;20471;49.680;20.074;2023-05-29T04:15:02;97337.29;;;8.14;70.52
34205;BME280;20471;49.680;20.074;2023-05-29T04:17:30;97338.83;;;8.21;70.51
34205;BME280;20471;49.680;20.074;2023-05-29T04:19:58;97343.05;;;8.24;70.53
34205;BME280;20471;49.680;20.074;2023-05-29T04:22:30;97343.83;;;8.27;70.57
34205;BME280;20471;49.680;20.074;2023-05-29T04:24:57;97343.59;;;8.33;70.60
34205;BME280;20471;49.680;20.074;2023-05-29T04:27:26;97344.11;;;8.37;70.65
34205;BME280;20471;49.680;20.074;2023-05-29T04:29:54;97347.98;;;8.40;70.76
34205;BME280;20471;49.680;20.074;2023-05-29T04:32:22;97349.00;;;8.44;70.81
34205;BME280;20471;49.680;20.074;2023-05-29T04:34:50;97351.98;;;8.47;70.79
34205;BME280;20471;49.680;20.074;2023-05-29T04:37:18;97354.21;;;8.53;70.90
34205;BME280;20471;49.680;20.074;2023-05-29T04:39:47;97346.74;;;8.59;70.93
34205;BME280;20471;49.680;20.074;2023-05-29T04:42:17;97347.77;;;8.65;70.89
34205;BME280;20471;49.680;20.074;2023-05-29T04:44:45;97346.30;;;8.72;70.83
34205;BME280;20471;49.680;20.074;2023-05-29T04:47:13;97345.30;;;8.80;70.84
34205;BME280;20471;49.680;20.074;2023-05-29T04:49:42;97347.60;;;8.87;70.83
34205;BME280;20471;49.680;20.074;2023-05-29T04:52:15;97342.89;;;8.93;70.96
34205;BME280;20471;49.680;20.074;2023-05-29T04:54:43;97341.27;;;8.99;70.89
34205;BME280;20471;49.680;20.074;2023-05-29T04:57:11;97342.45;;;9.04;70.96
34205;BME280;20471;49.680;20.074;2023-05-29T04:59:39;97339.42;;;9.09;70.84
34205;BME280;20471;49.680;20.074;2023-05-29T05:02:06;97340.34;;;9.16;70.77
34205;BME280;20471;49.680;20.074;2023-05-29T05:04:34;97343.80;;;9.23;70.69
34205;BME280;20471;49.680;20.074;2023-05-29T05:07:04;97338.73;;;9.30;70.78
34205;BME280;20471;49.680;20.074;2023-05-29T05:09:33;97339.98;;;9.40;70.76
34205;BME280;20471;49.680;20.074;2023-05-29T05:12:01;97337.71;;;9.50;70.80
34205;BME280;20471;49.680;20.074;2023-05-29T05:14:29;97333.53;;;9.59;70.85
34205;BME280;20471;49.680;20.074;2023-05-29T05:16:57;97334.90;;;9.70;70.77
34205;BME280;20471;49.680;20.074;2023-05-29T05:19:25;97331.74;;;9.82;70.88
34205;BME280;20471;49.680;20.074;2023-05-29T05:21:52;97326.75;;;9.92;70.64
34205;BME280;20471;49.680;20.074;2023-05-29T05:24:20;97330.52;;;10.01;70.47
34205;BME280;20471;49.680;20.074;2023-05-29T05:26:48;97329.44;;;10.13;70.46
34205;BME280;20471;49.680;20.074;2023-05-29T05:29:16;97327.64;;;10.25;70.29
34205;BME280;20471;49.680;20.074;2023-05-29T05:31:44;97329.27;;;10.36;70.18
34205;BME280;20471;49.680;20.074;2023-05-29T05:34:13;97332.86;;;10.47;70.01
34205;BME280;20471;49.680;20.074;2023-05-29T05:36:41;97331.70;;;10.56;69.74
34205;BME280;20471;49.680;20.074;2023-05-29T05:39:09;97333.88;;;10.66;69.77
34205;BME280;20471;49.680;20.074;2023-05-29T05:41:37;97330.66;;;10.78;69.43
34205;BME280;20471;49.680;20.074;2023-05-29T05:44:05;97328.83;;;10.89;69.18
34205;BME280;20471;49.680;20.074;2023-05-29T05:46:33;97329.67;;;11.02;69.05
34205;BME280;20471;49.680;20.074;2023-05-29T05:49:01;97325.95;;;11.14;68.92
34205;BME280;20471;49.680;20.074;2023-05-29T05:51:29;97321.55;;;11.27;68.72
34205;BME280;20471;49.680;20.074;2023-05-29T05:53:58;97322.39;;;11.38;68.39
34205;BME280;20471;49.680;20.074;2023-05-29T05:56:26;97320.15;;;11.49;68.23
34205;BME280;20471;49.680;20.074;2023-05-29T05:58:54;97317.87;;;11.60;68.14
34205;BME280;20471;49.680;20.074;2023-05-29T06:01:22;97317.91;;;11.71;67.94
34205;BME280;20471;49.680;20.074;2023-05-29T06:03:50;97315.31;;;11.81;67.62
34205;BME280;20471;49.680;20.074;2023-05-29T06:06:18;97316.88;;;11.93;67.39
34205;BME280;20471;49.680;20.074;2023-05-29T06:08:47;97319.40;;;12.04;67.44
34205;BME280;20471;49.680;20.074;2023-05-29T06:11:15;97318.91;;;12.15;67.06
34205;BME280;20471;49.680;20.074;2023-05-29T06:13:43;97323.38;;;12.26;66.68
34205;BME280;20471;49.680;20.074;2023-05-29T06:16:12;97324.02;;;12.38;66.39
34205;BME280;20471;49.680;20.074;2023-05-29T06:18:42;97323.35;;;12.49;65.89
34205;BME280;20471;49.680;20.074;2023-05-29T06:21:12;97322.38;;;12.61;65.49
34205;BME280;20471;49.680;20.074;2023-05-29T06:23:40;97319.55;;;12.72;65.22
34205;BME280;20471;49.680;20.074;2023-05-29T06:26:08;97322.88;;;12.82;65.22
34205;BME280;20471;49.680;20.074;2023-05-29T06:28:36;97326.80;;;12.94;64.85
34205;BME280;20471;49.680;20.074;2023-05-29T06:31:04;97332.36;;;13.05;64.58
34205;BME280;20471;49.680;20.074;2023-05-29T06:33:33;97329.44;;;13.16;64.54
34205;BME280;20471;49.680;20.074;2023-05-29T06:36:00;97326.48;;;13.29;64.32
34205;BME280;20471;49.680;20.074;2023-05-29T06:38:28;97327.33;;;13.40;64.06
34205;BME280;20471;49.680;20.074;2023-05-29T06:40:57;97325.13;;;13.53;64.00
34205;BME280;20471;49.680;20.074;2023-05-29T06:43:25;97323.63;;;13.67;63.52
34205;BME280;20471;49.680;20.074;2023-05-29T06:45:53;97323.29;;;13.77;62.93
34205;BME280;20471;49.680;20.074;2023-05-29T06:48:21;97320.82;;;13.87;62.92
34205;BME280;20471;49.680;20.074;2023-05-29T06:50:49;97321.23;;;14.00;62.85
34205;BME280;20471;49.680;20.074;2023-05-29T06:53:17;97320.98;;;14.12;62.54
34205;BME280;20471;49.680;20.074;2023-05-29T06:55:45;97325.70;;;14.24;62.57
34205;BME280;20471;49.680;20.074;2023-05-29T06:58:13;97326.58;;;14.38;62.73
34205;BME280;20471;49.680;20.074;2023-05-29T07:00:41;97327.41;;;14.52;62.89
34205;BME280;20471;49.680;20.074;2023-05-29T07:03:09;97329.85;;;14.67;62.80
34205;BME280;20471;49.680;20.074;2023-05-29T07:05:37;97333.32;;;14.82;62.87
34205;BME280;20471;49.680;20.074;2023-05-29T07:08:05;97335.40;;;14.96;62.50
34205;BME280;20471;49.680;20.074;2023-05-29T07:10:33;97335.83;;;15.09;62.18
34205;BME280;20471;49.680;20.074;2023-05-29T07:13:01;97334.74;;;15.23;62.38
34205;BME280;20471;49.680;20.074;2023-05-29T07:15:30;97336.77;;;15.37;62.29
34205;BME280;20471;49.680;20.074;2023-05-29T07:17:58;97335.90;;;15.52;61.89
34205;BME280;20471;49.680;20.074;2023-05-29T07:20:26;97334.95;;;15.64;60.48
34205;BME280;20471;49.680;20.074;2023-05-29T07:22:54;97331.39;;;15.76;60.64
34205;BME280;20471;49.680;20.074;2023-05-29T07:25:22;97325.80;;;15.90;60.80
34205;BME280;20471;49.680;20.074;2023-05-29T07:27:50;97328.73;;;16.02;60.40
34205;BME280;20471;49.680;20.074;2023-05-29T07:30:18;97329.54;;;16.16;60.13
34205;BME280;20471;49.680;20.074;2023-05-29T07:32:46;97329.71;;;16.31;59.05
34205;BME280;20471;49.680;20.074;2023-05-29T07:35:14;97326.76;;;16.44;58.80
34205;BME280;20471;49.680;20.074;2023-05-29T07:37:42;97321.75;;;16.56;59.01
34205;BME280;20471;49.680;20.074;2023-05-29T07:40:10;97324.93;;;16.71;59.09
34205;BME280;20471;49.680;20.074;2023-05-29T07:42:38;97324.60;;;16.87;58.50
34205;BME280;20471;49.680;20.074;2023-05-29T07:45:06;97323.16;;;17.03;58.07
34205;BME280;20471;49.680;20.074;2023-05-29T07:47:34;97323.46;;;17.20;57.97
34205;BME280;20471;49.680;20.074;2023-05-29T07:50:02;97321.23;;;17.45;57.95
34205;BME280;20471;49.680;20.074;2023-05-29T07:52:30;97322.05;;;17.76;57.19
34205;BME280;20471;49.680;20.074;2023-05-29T07:54:58;97318.29;;;18.09;56.58
34205;BME280;20471;49.680;20.074;2023-05-29T07:57:28;97317.58;;;18.44;56.26
34205;BME280;20471;49.680;20.074;2023-05-29T07:59:57;97318.14;;;18.81;56.35
34205;BME280;20471;49.680;20.074;2023-05-29T08:02:25;97320.14;;;19.18;56.44
34205;BME280;20471;49.680;20.074;2023-05-29T08:04:53;97317.37;;;19.52;56.39
34205;BME280;20471;49.680;20.074;2023-05-29T08:07:21;97317.59;;;19.82;55.65
34205;BME280;20471;49.680;20.074;2023-05-29T08:09:49;97313.27;;;20.13;55.20
34205;BME280;20471;49.680;20.074;2023-05-29T08:12:17;97309.88;;;20.43;54.86
34205;BME280;20471;49.680;20.074;2023-05-29T08:14:45;97310.27;;;20.69;54.17
34205;BME280;20471;49.680;20.074;2023-05-29T08:17:13;97310.00;;;20.86;54.01
34205;BME280;20471;49.680;20.074;2023-05-29T08:19:41;97310.11;;;21.01;53.93
34205;BME280;20471;49.680;20.074;2023-05-29T08:22:11;97312.52;;;21.21;53.06
34205;BME280;20471;49.680;20.074;2023-05-29T08:24:40;97312.63;;;21.44;52.38
34205;BME280;20471;49.680;20.074;2023-05-29T08:27:08;97312.43;;;21.67;51.85
34205;BME280;20471;49.680;20.074;2023-05-29T08:29:35;97313.75;;;21.91;51.36
34205;BME280;20471;49.680;20.074;2023-05-29T08:32:04;97310.77;;;22.15;50.91
34205;BME280;20471;49.680;20.074;2023-05-29T08:34:33;97309.59;;;22.37;51.44
34205;BME280;20471;49.680;20.074;2023-05-29T08:37:01;97309.35;;;22.62;51.12
34205;BME280;20471;49.680;20.074;2023-05-29T08:39:29;97309.14;;;22.79;50.07
34205;BME280;20471;49.680;20.074;2023-05-29T08:44:56;97311.11;;;23.39;48.99
34205;BME280;20471;49.680;20.074;2023-05-29T08:47:26;97314.78;;;23.63;48.73
34205;BME280;20471;49.680;20.074;2023-05-29T08:49:54;97320.13;;;23.93;48.46
34205;BME280;20471;49.680;20.074;2023-05-29T08:52:23;97317.73;;;24.22;47.92
34205;BME280;20471;49.680;20.074;2023-05-29T08:54:52;97315.05;;;24.45;47.56
34205;BME280;20471;49.680;20.074;2023-05-29T08:57:23;97312.75;;;24.74;47.21
34205;BME280;20471;49.680;20.074;2023-05-29T08:59:51;97309.70;;;25.08;46.46
34205;BME280;20471;49.680;20.074;2023-05-29T09:02:19;97311.48;;;25.39;46.03
34205;BME280;20471;49.680;20.074;2023-05-29T09:04:48;97308.90;;;25.71;45.99
34205;BME280;20471;49.680;20.074;2023-05-29T09:07:16;97307.00;;;25.98;45.30
34205;BME280;20471;49.680;20.074;2023-05-29T09:09:45;97303.55;;;26.23;44.67
34205;BME280;20471;49.680;20.074;2023-05-29T09:12:14;97301.45;;;26.47;44.42
34205;BME280;20471;49.680;20.074;2023-05-29T09:14:43;97300.98;;;26.73;43.86
34205;BME280;20471;49.680;20.074;2023-05-29T09:17:12;97301.13;;;27.01;43.66
34205;BME280;20471;49.680;20.074;2023-05-29T09:19:41;97298.75;;;27.28;43.03
34205;BME280;20471;49.680;20.074;2023-05-29T09:22:10;97297.41;;;27.50;42.03
34205;BME280;20471;49.680;20.074;2023-05-29T09:24:41;97298.04;;;27.64;41.60
34205;BME280;20471;49.680;20.074;2023-05-29T09:27:09;97296.48;;;27.74;41.54
34205;BME280;20471;49.680;20.074;2023-05-29T09:32:11;97294.86;;;28.02;40.46
34205;BME280;20471;49.680;20.074;2023-05-29T09:34:39;97297.08;;;28.13;40.44
34205;BME280;20471;49.680;20.074;2023-05-29T09:37:07;97291.39;;;28.21;40.52
34205;BME280;20471;49.680;20.074;2023-05-29T09:42:11;97292.52;;;28.18;39.88
34205;BME280;20471;49.680;20.074;2023-05-29T09:44:42;97293.23;;;28.23;39.78
34205;BME280;20471;49.680;20.074;2023-05-29T09:47:14;97293.92;;;28.16;39.42
34205;BME280;20471;49.680;20.074;2023-05-29T09:49:44;97296.92;;;28.08;39.64
34205;BME280;20471;49.680;20.074;2023-05-29T09:52:13;97299.56;;;28.08;39.86
34205;BME280;20471;49.680;20.074;2023-05-29T09:54:42;97296.56;;;28.10;39.78
34205;BME280;20471;49.680;20.074;2023-05-29T09:57:13;97294.42;;;28.14;39.46
34205;BME280;20471;49.680;20.074;2023-05-29T09:59:44;97295.34;;;28.15;38.95
34205;BME280;20471;49.680;20.074;2023-05-29T10:02:15;97296.78;;;28.15;38.78
34205;BME280;20471;49.680;20.074;2023-05-29T10:04:43;97297.66;;;28.15;39.05
34205;BME280;20471;49.680;20.074;2023-05-29T10:07:22;97296.12;;;28.19;38.50
34205;BME280;20471;49.680;20.074;2023-05-29T10:09:55;97298.35;;;28.21;38.17
34205;BME280;20471;49.680;20.074;2023-05-29T10:12:26;97301.76;;;28.18;37.81
34205;BME280;20471;49.680;20.074;2023-05-29T10:14:56;97301.23;;;28.13;37.76
34205;BME280;20471;49.680;20.074;2023-05-29T10:17:34;97299.30;;;28.15;38.46
34205;BME280;20471;49.680;20.074;2023-05-29T10:20:04;97298.12;;;28.21;38.48
34205;BME280;20471;49.680;20.074;2023-05-29T10:22:33;97297.39;;;28.29;38.37
34205;BME280;20471;49.680;20.074;2023-05-29T10:25:02;97297.55;;;28.31;37.99
34205;BME280;20471;49.680;20.074;2023-05-29T10:27:31;97297.20;;;28.32;38.18
34205;BME280;20471;49.680;20.074;2023-05-29T10:30:00;97298.95;;;28.36;38.38
34205;BME280;20471;49.680;20.074;2023-05-29T10:32:32;97296.46;;;28.36;38.10
34205;BME280;20471;49.680;20.074;2023-05-29T10:35:14;97296.67;;;28.28;37.80
34205;BME280;20471;49.680;20.074;2023-05-29T10:40:13;97298.74;;;28.19;37.88
34205;BME280;20471;49.680;20.074;2023-05-29T10:45:09;97296.33;;;28.15;37.59
34205;BME280;20471;49.680;20.074;2023-05-29T10:47:38;97297.70;;;28.09;37.67
34205;BME280;20471;49.680;20.074;2023-05-29T10:50:06;97296.61;;;28.03;37.94
34205;BME280;20471;49.680;20.074;2023-05-29T10:52:34;97294.30;;;28.03;38.40
34205;BME280;20471;49.680;20.074;2023-05-29T10:55:03;97294.45;;;27.99;37.71
34205;BME280;20471;49.680;20.074;2023-05-29T10:57:31;97293.23;;;27.96;37.67
34205;BME280;20471;49.680;20.074;2023-05-29T11:00:04;97290.46;;;27.96;38.21
34205;BME280;20471;49.680;20.074;2023-05-29T11:02:38;97288.86;;;27.94;38.21
34205;BME280;20471;49.680;20.074;2023-05-29T11:05:19;97287.11;;;27.89;37.47
34205;BME280;20471;49.680;20.074;2023-05-29T11:07:51;97288.96;;;27.84;37.44
34205;BME280;20471;49.680;20.074;2023-05-29T11:13:07;97284.39;;;27.92;37.86
34205;BME280;20471;49.680;20.074;2023-05-29T11:15:38;97284.19;;;27.93;37.86
34205;BME280;20471;49.680;20.074;2023-05-29T11:18:07;97285.27;;;27.95;37.94
34205;BME280;20471;49.680;20.074;2023-05-29T11:20:36;97285.27;;;27.98;37.59
34205;BME280;20471;49.680;20.074;2023-05-29T11:23:05;97283.90;;;27.92;37.50
34205;BME280;20471;49.680;20.074;2023-05-29T11:25:35;97281.02;;;27.87;37.35
34205;BME280;20471;49.680;20.074;2023-05-29T11:28:04;97281.19;;;27.90;37.64
34205;BME280;20471;49.680;20.074;2023-05-29T11:30:41;97281.32;;;27.86;37.38
34205;BME280;20471;49.680;20.074;2023-05-29T11:33:13;97278.86;;;27.79;36.96
34205;BME280;20471;49.680;20.074;2023-05-29T11:35:43;97277.86;;;27.71;36.94
34205;BME280;20471;49.680;20.074;2023-05-29T11:38:12;97274.91;;;27.66;37.16
34205;BME280;20471;49.680;20.074;2023-05-29T11:40:42;97277.23;;;27.68;36.87
34205;BME280;20471;49.680;20.074;2023-05-29T11:43:12;97274.53;;;27.73;37.01
34205;BME280;20471;49.680;20.074;2023-05-29T11:45:40;97274.44;;;27.77;37.25
34205;BME280;20471;49.680;20.074;2023-05-29T11:48:09;97274.41;;;27.75;36.83
34205;BME280;20471;49.680;20.074;2023-05-29T11:50:37;97271.04;;;27.71;36.64
34205;BME280;20471;49.680;20.074;2023-05-29T11:53:05;97269.23;;;27.70;36.24
34205;BME280;20471;49.680;20.074;2023-05-29T11:55:34;97266.17;;;27.72;36.61
34205;BME280;20471;49.680;20.074;2023-05-29T11:58:03;97266.48;;;27.76;36.80
34205;BME280;20471;49.680;20.074;2023-05-29T12:00:32;97264.61;;;27.81;36.72
34205;BME280;20471;49.680;20.074;2023-05-29T12:03:01;97262.81;;;27.81;36.32
34205;BME280;20471;49.680;20.074;2023-05-29T12:05:31;97262.37;;;27.77;36.09
34205;BME280;20471;49.680;20.074;2023-05-29T12:08:00;97262.30;;;27.73;36.25
34205;BME280;20471;49.680;20.074;2023-05-29T12:10:31;97256.72;;;27.62;35.93
34205;BME280;20471;49.680;20.074;2023-05-29T12:12:59;97255.65;;;27.54;36.49
34205;BME280;20471;49.680;20.074;2023-05-29T12:15:27;97257.46;;;27.53;36.63
34205;BME280;20471;49.680;20.074;2023-05-29T12:17:55;97256.44;;;27.47;36.37
34205;BME280;20471;49.680;20.074;2023-05-29T12:20:24;97258.09;;;27.40;36.19
34205;BME280;20471;49.680;20.074;2023-05-29T12:22:54;97254.52;;;27.33;36.73
34205;BME280;20471;49.680;20.074;2023-05-29T12:25:26;97254.48;;;27.31;37.08
34205;BME280;20471;49.680;20.074;2023-05-29T12:27:55;97252.67;;;27.28;36.38
34205;BME280;20471;49.680;20.074;2023-05-29T12:30:24;97250.83;;;27.13;35.94
34205;BME280;20471;49.680;20.074;2023-05-29T12:32:52;97250.58;;;27.01;36.34
34205;BME280;20471;49.680;20.074;2023-05-29T12:35:24;97244.85;;;26.97;36.21
34205;BME280;20471;49.680;20.074;2023-05-29T12:37:56;97242.84;;;26.95;36.02
34205;BME280;20471;49.680;20.074;2023-05-29T12:40:28;97241.42;;;26.76;35.84
34205;BME280;20471;49.680;20.074;2023-05-29T12:42:57;97240.47;;;26.68;36.72
34205;BME280;20471;49.680;20.074;2023-05-29T12:45:27;97238.27;;;26.72;36.83
34205;BME280;20471;49.680;20.074;2023-05-29T12:53:01;97242.09;;;26.80;36.79
34205;BME280;20471;49.680;20.074;2023-05-29T12:55:31;97243.08;;;26.84;36.79
34205;BME280;20471;49.680;20.074;2023-05-29T12:58:00;97240.08;;;26.95;36.57
34205;BME280;20471;49.680;20.074;2023-05-29T13:00:28;97243.23;;;27.02;36.32
34205;BME280;20471;49.680;20.074;2023-05-29T13:02:56;97242.77;;;27.08;36.48
34205;BME280;20471;49.680;20.074;2023-05-29T13:05:25;97245.30;;;27.18;36.67
34205;BME280;20471;49.680;20.074;2023-05-29T13:07:53;97245.85;;;27.18;35.60
34205;BME280;20471;49.680;20.074;2023-05-29T13:10:21;97243.28;;;27.15;35.55
34205;BME280;20471;49.680;20.074;2023-05-29T13:12:49;97238.17;;;27.00;35.08
34205;BME280;20471;49.680;20.074;2023-05-29T13:15:22;97236.83;;;26.88;35.54
34205;BME280;20471;49.680;20.074;2023-05-29T13:17:50;97240.48;;;26.99;35.96
34205;BME280;20471;49.680;20.074;2023-05-29T13:20:18;97237.27;;;27.01;35.28
34205;BME280;20471;49.680;20.074;2023-05-29T13:22:47;97239.23;;;27.05;34.86
34205;BME280;20471;49.680;20.074;2023-05-29T13:25:16;97237.67;;;26.98;34.93
34205;BME280;20471;49.680;20.074;2023-05-29T13:27:46;97234.30;;;26.92;34.98
34205;BME280;20471;49.680;20.074;2023-05-29T13:30:15;97235.55;;;26.82;35.17
34205;BME280;20471;49.680;20.074;2023-05-29T13:32:43;97237.85;;;26.73;35.18
34205;BME280;20471;49.680;20.074;2023-05-29T13:35:11;97232.30;;;26.79;35.26
34205;BME280;20471;49.680;20.074;2023-05-29T13:37:39;97228.46;;;26.78;34.89